Time;durP1;ratioP1;P1;durP2;ratioP2;P2;SDS_P1;SDS_P2;PMS_P1;PMS_P2;Temp;Humidity;BMP_temperature;BMP_pressure;BME280_temperature;BME280_humidity;BME280_pressure;Samples;Min_cycle;Max_cycle;Signal;HPM_P1;HPM_P2
2024/02/19 00:02:25;;;;;;;4.03;2.87;;;11.20;76.40;;;;;;5076936;28;20827;-68
2024/02/19 00:04:52;;;;;;;3.63;2.40;;;11.20;77.50;;;;;;5076564;28;20919;-68
2024/02/19 00:07:20;;;;;;;3.57;1.83;;;11.20;78.20;;;;;;5076835;28;20428;-68
2024/02/19 00:09:47;;;;;;;4.95;2.05;;;11.10;77.50;;;;;;5076991;28;20498;-68
2024/02/19 00:12:14;;;;;;;3.57;2.30;;;11.10;77.60;;;;;;5076980;28;20232;-68
2024/02/19 00:14:43;;;;;;;2.83;1.70;;;11.10;77.50;;;;;;5076582;28;20482;-67
2024/02/19 00:17:10;;;;;;;2.83;1.70;;;11.10;77.90;;;;;;5076947;28;20434;-67
2024/02/19 00:19:39;;;;;;;3.10;1.73;;;11.10;78.00;;;;;;5076460;28;20566;-67
2024/02/19 00:22:06;;;;;;;3.20;2.00;;;11.00;77.90;;;;;;5076854;28;20442;-67
2024/02/19 00:24:33;;;;;;;3.43;1.77;;;11.00;78.10;;;;;;5076555;28;20798;-67
2024/02/19 00:27:02;;;;;;;3.10;2.00;;;10.90;78.50;;;;;;5076707;28;20523;-68
2024/02/19 00:29:29;;;;;;;4.57;2.17;;;10.90;78.70;;;;;;5076381;28;20506;-68
2024/02/19 00:31:58;;;;;;;3.20;2.07;;;10.90;79.00;;;;;;5076400;28;20190;-67
2024/02/19 00:34:26;;;;;;;3.17;1.57;;;10.90;78.80;;;;;;5075888;28;20468;-68
2024/02/19 00:36:54;;;;;;;2.93;1.50;;;10.90;78.40;;;;;;5076747;28;20432;-68
2024/02/19 00:39:21;;;;;;;4.55;1.30;;;10.90;78.20;;;;;;5076446;28;20432;-68
2024/02/19 00:41:48;;;;;;;2.97;1.53;;;10.90;78.30;;;;;;5075976;28;20228;-68
2024/02/19 00:44:15;;;;;;;2.87;2.00;;;10.90;78.20;;;;;;5074947;28;20455;-67
2024/02/19 00:46:42;;;;;;;3.08;1.27;;;10.80;78.50;;;;;;5075190;28;20436;-68
2024/02/19 00:49:14;;;;;;;3.30;1.50;;;10.90;79.30;;;;;;5075205;28;20193;-68
2024/02/19 00:51:42;;;;;;;2.23;1.20;;;10.80;78.80;;;;;;5075173;28;20265;-68
2024/02/19 00:54:09;;;;;;;2.87;1.13;;;10.90;78.60;;;;;;5074515;28;20432;-68
2024/02/19 00:56:37;;;;;;;2.30;1.38;;;10.80;78.70;;;;;;5075084;28;20990;-68
2024/02/19 00:59:04;;;;;;;4.15;1.10;;;10.90;78.80;;;;;;5074713;28;20194;-68
2024/02/19 01:01:32;;;;;;;2.20;1.10;;;10.80;78.30;;;;;;5074611;28;20678;-68
2024/02/19 01:03:59;;;;;;;2.25;1.00;;;10.80;78.00;;;;;;5074806;28;20859;-68
2024/02/19 01:06:27;;;;;;;2.28;0.85;;;10.80;77.70;;;;;;5074588;28;20190;-68
2024/02/19 01:08:58;;;;;;;3.00;0.90;;;10.80;77.60;;;;;;5074557;28;20228;-68
2024/02/19 01:11:26;;;;;;;2.20;1.00;;;10.70;77.40;;;;;;5074966;28;20601;-68
2024/02/19 01:13:53;;;;;;;2.08;0.98;;;10.70;77.30;;;;;;5074525;28;20432;-68
2024/02/19 01:16:20;;;;;;;2.15;0.98;;;10.70;77.40;;;;;;5074127;28;20277;-67
2024/02/19 01:18:47;;;;;;;2.00;1.00;;;10.60;77.60;;;;;;5074469;28;20289;-67
2024/02/19 01:21:14;;;;;;;2.55;1.25;;;10.60;77.10;;;;;;5074584;28;20297;-68
2024/02/19 01:23:43;;;;;;;2.88;1.20;;;10.60;77.30;;;;;;5074000;28;20250;-68
2024/02/19 01:26:09;;;;;;;1.90;1.05;;;10.50;77.10;;;;;;5074226;28;20280;-68
2024/02/19 01:28:37;;;;;;;2.65;1.50;;;10.50;77.80;;;;;;5074647;28;20292;-68
2024/02/19 01:31:04;;;;;;;2.15;0.90;;;10.40;78.50;;;;;;5074462;28;20530;-68
2024/02/19 01:33:31;;;;;;;2.43;1.30;;;10.40;78.40;;;;;;5073926;28;20266;-68
2024/02/19 01:35:58;;;;;;;2.40;0.90;;;10.30;78.60;;;;;;5074466;28;20443;-68
2024/02/19 01:38:26;;;;;;;2.20;0.90;;;10.30;78.50;;;;;;5074125;28;20281;-68
2024/02/19 01:40:54;;;;;;;1.90;0.80;;;10.20;79.40;;;;;;5073978;28;20630;-68
2024/02/19 01:43:22;;;;;;;1.70;0.60;;;10.20;79.30;;;;;;5033314;28;1184697;-68
2024/02/19 01:45:50;;;;;;;2.60;0.88;;;10.20;78.90;;;;;;5074926;28;20714;-68
2024/02/19 01:48:18;;;;;;;1.92;0.88;;;10.10;79.30;;;;;;5075220;28;20233;-67
2024/02/19 01:50:48;;;;;;;2.67;0.90;;;10.10;79.10;;;;;;5074896;28;20656;-68
2024/02/19 01:53:16;;;;;;;2.00;0.75;;;10.10;78.80;;;;;;5074266;28;20193;-68
2024/02/19 01:55:45;;;;;;;1.90;0.95;;;10.00;79.30;;;;;;5075321;28;20244;-68
2024/02/19 01:58:13;;;;;;;1.80;0.70;;;10.00;79.70;;;;;;5074688;28;20263;-68
2024/02/19 02:00:41;;;;;;;1.63;0.60;;;10.00;79.60;;;;;;5074870;28;20305;-67
2024/02/19 02:03:11;;;;;;;1.70;0.70;;;10.00;79.40;;;;;;5074185;28;20196;-67
2024/02/19 02:05:38;;;;;;;1.70;0.60;;;10.00;79.10;;;;;;5074933;28;20285;-67
2024/02/19 02:08:06;;;;;;;1.70;0.70;;;10.00;79.00;;;;;;5074532;28;20248;-68
2024/02/19 02:10:33;;;;;;;1.80;0.65;;;10.00;79.50;;;;;;5073752;28;20237;-69
2024/02/19 02:13:02;;;;;;;2.10;0.90;;;9.90;80.70;;;;;;5073829;28;20222;-68
2024/02/19 02:15:31;;;;;;;1.70;0.60;;;10.00;79.50;;;;;;5074366;28;20580;-68
2024/02/19 02:17:58;;;;;;;1.80;0.70;;;9.90;80.70;;;;;;5074037;28;20252;-68
2024/02/19 02:20:26;;;;;;;1.88;0.80;;;9.90;81.20;;;;;;5073890;28;20242;-68
2024/02/19 02:22:53;;;;;;;2.00;0.63;;;9.90;81.30;;;;;;5074619;28;20190;-68
2024/02/19 02:25:26;;;;;;;1.65;0.60;;;9.90;80.90;;;;;;5074103;28;20225;-68
2024/02/19 02:27:54;;;;;;;1.80;0.70;;;9.90;81.30;;;;;;5074260;28;20625;-68
2024/02/19 02:30:26;;;;;;;1.80;0.70;;;9.90;81.40;;;;;;5072897;28;20194;-68
2024/02/19 02:32:55;;;;;;;2.15;0.95;;;9.90;81.50;;;;;;5074750;28;20174;-67
2024/02/19 02:35:23;;;;;;;2.47;0.80;;;9.90;81.20;;;;;;5074024;28;20197;-68
2024/02/19 02:37:50;;;;;;;1.80;0.80;;;9.90;81.30;;;;;;5074280;28;20284;-67
2024/02/19 02:40:17;;;;;;;1.70;0.60;;;9.80;81.50;;;;;;5074204;28;20249;-68
2024/02/19 02:42:45;;;;;;;1.80;0.63;;;9.80;81.90;;;;;;5072006;28;20222;-68
2024/02/19 02:45:15;;;;;;;1.90;0.73;;;9.80;81.70;;;;;;5074158;28;20608;-68
2024/02/19 02:47:42;;;;;;;1.90;0.63;;;9.80;82.20;;;;;;5074074;28;20183;-68
2024/02/19 02:50:10;;;;;;;2.30;1.00;;;9.90;82.90;;;;;;5074148;28;20571;-68
2024/02/19 02:52:37;;;;;;;1.80;0.82;;;9.80;83.20;;;;;;5073487;28;20744;-68
2024/02/19 02:55:04;;;;;;;2.00;0.95;;;9.80;83.40;;;;;;5074010;28;20221;-68
2024/02/19 02:57:31;;;;;;;1.80;0.80;;;9.80;83.40;;;;;;5074039;28;20562;-67
2024/02/19 03:00:02;;;;;;;2.10;0.90;;;9.80;83.50;;;;;;5073797;28;20194;-68
2024/02/19 03:02:32;;;;;;;2.10;1.30;;;9.80;83.20;;;;;;5074052;28;20182;-68
2024/02/19 03:04:59;;;;;;;1.80;0.70;;;9.80;82.60;;;;;;5073808;28;20194;-68
2024/02/19 03:07:31;;;;;;;1.90;0.80;;;9.80;83.00;;;;;;5073811;28;20239;-68
2024/02/19 03:09:58;;;;;;;2.10;0.90;;;9.80;83.20;;;;;;5073331;28;20696;-68
2024/02/19 03:12:26;;;;;;;1.67;0.60;;;9.80;82.30;;;;;;5073563;28;20675;-68
2024/02/19 03:14:54;;;;;;;2.38;0.60;;;9.70;82.80;;;;;;5073944;28;20586;-68
2024/02/19 03:17:21;;;;;;;1.90;0.80;;;9.80;82.40;;;;;;5073592;28;20360;-68
2024/02/19 03:19:50;;;;;;;1.90;0.98;;;9.70;83.10;;;;;;5073749;28;20226;-68
2024/02/19 03:22:17;;;;;;;1.98;0.80;;;9.70;82.90;;;;;;5073131;28;20214;-68
2024/02/19 03:24:45;;;;;;;1.80;0.80;;;9.70;83.30;;;;;;5073334;28;20194;-68
2024/02/19 03:27:12;;;;;;;2.10;0.90;;;9.70;83.50;;;;;;5073513;28;20219;-68
2024/02/19 03:29:42;;;;;;;2.00;0.88;;;9.70;84.00;;;;;;5073165;28;20286;-68
2024/02/19 03:32:09;;;;;;;2.10;1.00;;;9.70;84.10;;;;;;5073120;28;20217;-67
2024/02/19 03:34:36;;;;;;;1.98;0.80;;;9.70;83.70;;;;;;5072930;28;20186;-68
2024/02/19 03:37:04;;;;;;;1.80;0.80;;;9.60;84.10;;;;;;5073210;28;20730;-68
2024/02/19 03:39:32;;;;;;;1.85;0.80;;;9.60;83.90;;;;;;5073144;28;20226;-68
2024/02/19 03:42:00;;;;;;;1.80;0.80;;;9.60;84.10;;;;;;5072906;28;20275;-68
2024/02/19 03:44:27;;;;;;;1.88;0.70;;;9.60;83.50;;;;;;5073338;28;20714;-68
2024/02/19 03:46:54;;;;;;;1.98;0.75;;;9.60;83.30;;;;;;5073433;28;20205;-68
2024/02/19 03:49:23;;;;;;;1.85;0.80;;;9.60;84.00;;;;;;5073349;28;20194;-68
2024/02/19 03:51:50;;;;;;;1.90;0.70;;;9.60;84.20;;;;;;5073070;28;20182;-68
2024/02/19 03:54:19;;;;;;;2.00;0.90;;;9.60;83.70;;;;;;5072993;28;20281;-68
2024/02/19 03:56:51;;;;;;;3.45;2.45;;;9.60;83.90;;;;;;5073271;28;20551;-68
2024/02/19 03:59:18;;;;;;;2.03;1.05;;;9.60;84.30;;;;;;5072940;28;20536;-68
2024/02/19 04:01:45;;;;;;;1.90;1.05;;;9.60;84.40;;;;;;5072684;28;20253;-67
2024/02/19 04:04:14;;;;;;;1.90;0.80;;;9.60;84.10;;;;;;5073247;28;20605;-68
2024/02/19 04:06:42;;;;;;;1.80;0.70;;;9.60;84.40;;;;;;5073356;28;20206;-67
2024/02/19 04:09:10;;;;;;;2.83;0.77;;;9.60;84.90;;;;;;5073019;28;20613;-68
2024/02/19 04:11:42;;;;;;;1.80;0.80;;;9.70;84.70;;;;;;5072936;28;20228;-68
2024/02/19 04:14:09;;;;;;;1.70;0.60;;;9.60;85.20;;;;;;5073280;28;20244;-68
2024/02/19 04:16:37;;;;;;;1.80;0.60;;;9.60;85.60;;;;;;5072623;28;20190;-68
2024/02/19 04:19:04;;;;;;;1.70;0.60;;;9.60;85.60;;;;;;5073176;28;20248;-68
2024/02/19 04:21:31;;;;;;;1.67;0.60;;;9.60;85.90;;;;;;5072795;28;20267;-68
2024/02/19 04:23:58;;;;;;;2.13;0.70;;;9.60;86.40;;;;;;5072717;28;20226;-68
2024/02/19 04:26:26;;;;;;;5.50;1.17;;;9.60;87.00;;;;;;5073101;28;20616;-68
2024/02/19 04:28:56;;;;;;;2.35;1.92;;;9.60;86.80;;;;;;5072706;28;20198;-68
2024/02/19 04:31:23;;;;;;;2.13;1.35;;;9.70;87.00;;;;;;5072983;28;20532;-68
2024/02/19 04:33:50;;;;;;;2.28;0.85;;;9.70;87.30;;;;;;5073413;28;20285;-68
2024/02/19 04:36:22;;;;;;;1.80;0.60;;;9.70;87.70;;;;;;5076573;28;20194;-68
2024/02/19 04:38:50;;;;;;;1.70;0.60;;;9.60;88.10;;;;;;5075533;28;20198;-67
2024/02/19 04:41:17;;;;;;;1.80;0.80;;;9.60;89.00;;;;;;5075968;28;20213;-67
2024/02/19 04:43:44;;;;;;;2.00;1.17;;;9.60;89.80;;;;;;5076555;28;20273;-68
2024/02/19 04:46:13;;;;;;;2.00;0.80;;;9.70;90.00;;;;;;5076544;28;20232;-68
2024/02/19 04:48:40;;;;;;;1.98;0.90;;;9.50;90.30;;;;;;5076169;28;20222;-68
2024/02/19 04:51:09;;;;;;;2.30;0.93;;;9.50;90.70;;;;;;5076368;28;20252;-68
2024/02/19 04:53:37;;;;;;;2.28;1.00;;;9.50;90.90;;;;;;5076349;28;20198;-68
2024/02/19 04:56:04;;;;;;;2.20;1.00;;;9.50;90.90;;;;;;5075665;28;20199;-67
2024/02/19 04:58:31;;;;;;;2.10;0.95;;;9.50;91.00;;;;;;5076220;28;20601;-68
2024/02/19 05:00:58;;;;;;;3.28;1.00;;;9.50;91.00;;;;;;5075911;28;20213;-68
2024/02/19 05:03:27;;;;;;;2.15;0.93;;;9.40;91.30;;;;;;5075926;28;20659;-68
2024/02/19 05:05:54;;;;;;;2.20;0.90;;;9.40;91.40;;;;;;5075489;28;20186;-67
2024/02/19 05:08:21;;;;;;;2.42;0.90;;;9.30;91.70;;;;;;5075440;28;20186;-68
2024/02/19 05:10:48;;;;;;;2.60;0.85;;;9.40;91.90;;;;;;5075651;28;20216;-68
2024/02/19 05:13:16;;;;;;;2.10;1.08;;;9.40;92.00;;;;;;5075819;28;20212;-68
2024/02/19 05:15:44;;;;;;;2.78;1.00;;;9.40;91.90;;;;;;5075209;28;20194;-67
2024/02/19 05:18:17;;;;;;;2.42;0.82;;;9.40;91.90;;;;;;5075621;28;20220;-68
2024/02/19 05:20:45;;;;;;;1.80;0.80;;;9.40;91.80;;;;;;5075910;28;20578;-68
2024/02/19 05:23:12;;;;;;;1.80;0.80;;;9.50;91.80;;;;;;5075490;28;20194;-68
2024/02/19 05:25:41;;;;;;;3.58;1.10;;;9.50;92.00;;;;;;5075084;28;20277;-68
2024/02/19 05:28:09;;;;;;;2.20;0.80;;;9.50;92.00;;;;;;5075779;28;20190;-67
2024/02/19 05:30:36;;;;;;;4.05;0.60;;;9.50;92.20;;;;;;5075379;28;20189;-68
2024/02/19 05:33:05;;;;;;;3.35;0.88;;;9.60;91.90;;;;;;5075771;28;20271;-68
2024/02/19 05:35:33;;;;;;;1.70;0.70;;;9.60;91.70;;;;;;5074521;28;20225;-67
2024/02/19 05:38:01;;;;;;;2.80;0.77;;;9.60;91.30;;;;;;5075383;28;20315;-67
2024/02/19 05:40:28;;;;;;;1.80;0.80;;;9.60;91.50;;;;;;5075175;28;20226;-67
2024/02/19 05:42:55;;;;;;;1.80;0.80;;;9.70;91.40;;;;;;5075460;28;20592;-68
2024/02/19 05:45:22;;;;;;;2.35;1.08;;;9.60;91.50;;;;;;5073796;28;20618;-68
2024/02/19 05:47:49;;;;;;;1.92;0.85;;;9.60;91.70;;;;;;5074185;28;20190;-68
2024/02/19 05:50:16;;;;;;;1.95;0.82;;;9.60;91.80;;;;;;5075269;28;20237;-68
2024/02/19 05:52:43;;;;;;;1.70;0.70;;;9.70;91.60;;;;;;5075247;28;20226;-68
2024/02/19 05:55:12;;;;;;;2.92;0.88;;;9.70;91.30;;;;;;5074664;28;20193;-68
2024/02/19 05:57:39;;;;;;;1.67;0.65;;;9.70;91.50;;;;;;5075287;28;20267;-68
2024/02/19 06:00:13;;;;;;;2.20;0.90;;;9.70;91.60;;;;;;5075078;28;20281;-68
2024/02/19 06:02:40;;;;;;;2.40;0.80;;;9.70;91.60;;;;;;5074685;28;20197;-68
2024/02/19 06:05:08;;;;;;;1.80;0.85;;;9.70;91.60;;;;;;5071422;28;20241;-68
2024/02/19 06:07:36;;;;;;;2.30;1.00;;;9.70;91.60;;;;;;5063775;28;20288;-67
2024/02/19 06:10:03;;;;;;;2.20;1.60;;;9.70;91.80;;;;;;5072991;28;20192;-68
2024/02/19 06:12:31;;;;;;;5.35;4.18;;;9.70;91.90;;;;;;5073648;28;20225;-68
2024/02/19 06:14:58;;;;;;;5.22;4.20;;;9.70;91.90;;;;;;5073712;28;20281;-68
2024/02/19 06:17:26;;;;;;;2.55;1.85;;;9.70;92.10;;;;;;5073496;28;20213;-67
2024/02/19 06:19:53;;;;;;;2.15;1.00;;;9.70;92.30;;;;;;5073887;28;20190;-68
2024/02/19 06:22:20;;;;;;;1.95;0.90;;;9.70;92.20;;;;;;5073804;28;20309;-68
2024/02/19 06:24:47;;;;;;;2.42;1.42;;;9.70;92.20;;;;;;5074074;28;20621;-68
2024/02/19 06:27:14;;;;;;;2.20;1.35;;;9.70;92.20;;;;;;5073520;28;20240;-68
2024/02/19 06:29:43;;;;;;;3.58;2.58;;;9.80;92.00;;;;;;5074108;28;20218;-68
2024/02/19 06:32:11;;;;;;;2.20;1.80;;;9.80;92.30;;;;;;5073735;28;20237;-68
2024/02/19 06:34:39;;;;;;;1.90;0.90;;;9.80;92.60;;;;;;5073607;28;20277;-68
2024/02/19 06:37:06;;;;;;;3.30;0.98;;;9.80;92.60;;;;;;5073115;28;20190;-68
2024/02/19 06:39:35;;;;;;;2.25;0.82;;;9.80;92.70;;;;;;5073285;28;20711;-68
2024/02/19 06:42:02;;;;;;;3.13;1.10;;;9.80;92.80;;;;;;5073698;28;20565;-68
2024/02/19 06:44:29;;;;;;;2.00;0.82;;;9.80;93.00;;;;;;5073674;28;20596;-68
2024/02/19 06:46:57;;;;;;;6.57;1.45;;;9.80;93.40;;;;;;5073024;28;20185;-68
2024/02/19 06:49:24;;;;;;;2.97;1.90;;;9.90;92.90;;;;;;5073174;28;20546;-68
2024/02/19 06:51:51;;;;;;;3.15;2.03;;;9.90;93.00;;;;;;5073430;28;20285;-68
2024/02/19 06:54:20;;;;;;;5.47;3.55;;;9.90;93.00;;;;;;5073320;28;20301;-68
2024/02/19 06:56:47;;;;;;;5.22;1.98;;;9.90;93.00;;;;;;5072298;28;20598;-68
2024/02/19 06:59:14;;;;;;;2.78;1.42;;;9.90;93.00;;;;;;5072833;28;20619;-68
2024/02/19 07:01:41;;;;;;;3.97;2.05;;;10.00;92.20;;;;;;5072660;28;20293;-68
2024/02/19 07:04:11;;;;;;;2.85;1.75;;;10.00;92.30;;;;;;5073127;28;20272;-68
2024/02/19 07:06:38;;;;;;;2.97;1.40;;;10.00;92.20;;;;;;5072905;28;20197;-68
2024/02/19 07:09:06;;;;;;;2.60;1.60;;;10.00;92.20;;;;;;5072570;28;20293;-68
2024/02/19 07:11:34;;;;;;;2.65;1.70;;;10.00;92.30;;;;;;5072943;28;20186;-68
2024/02/19 07:14:01;;;;;;;3.03;1.20;;;10.10;92.50;;;;;;5072714;28;20247;-68
2024/02/19 07:16:37;;;;;;;2.58;1.33;;;10.10;92.40;;;;;;5072785;28;20573;-68
2024/02/19 07:19:07;;;;;;;3.95;1.48;;;10.10;92.40;;;;;;5071841;28;20217;-69
2024/02/19 07:21:36;;;;;;;3.50;1.40;;;10.20;92.50;;;;;;5058145;28;20178;-68
2024/02/19 07:24:03;;;;;;;2.90;1.35;;;10.20;92.50;;;;;;5073146;28;20742;-68
2024/02/19 07:26:30;;;;;;;2.60;1.20;;;10.20;92.30;;;;;;5092547;28;20197;-68
2024/02/19 07:28:57;;;;;;;4.03;2.10;;;10.30;92.30;;;;;;5079556;28;20259;-68
2024/02/19 07:31:24;;;;;;;2.80;1.55;;;10.30;91.90;;;;;;5072175;28;20273;-68
2024/02/19 07:33:53;;;;;;;6.10;1.90;;;10.40;91.70;;;;;;5072047;28;20229;-68
2024/02/19 07:36:20;;;;;;;2.80;1.30;;;10.40;91.40;;;;;;5072346;28;20278;-68
2024/02/19 07:38:48;;;;;;;3.22;1.40;;;10.40;91.20;;;;;;5082211;28;20683;-68
2024/02/19 07:41:15;;;;;;;2.30;1.30;;;10.50;91.20;;;;;;5086019;28;20182;-68
2024/02/19 07:43:42;;;;;;;3.90;1.60;;;10.50;91.00;;;;;;5072722;28;20293;-68
2024/02/19 07:46:09;;;;;;;7.22;1.90;;;10.50;91.00;;;;;;5072084;28;20213;-68
2024/02/19 07:48:36;;;;;;;3.20;1.27;;;10.50;90.50;;;;;;5072184;28;20212;-68
2024/02/19 07:51:03;;;;;;;4.38;1.95;;;10.50;90.50;;;;;;5073019;28;20530;-68
2024/02/19 07:53:30;;;;;;;8.32;1.95;;;10.50;90.50;;;;;;5073150;28;20193;-68
2024/02/19 07:56:04;;;;;;;5.07;1.60;;;10.50;90.60;;;;;;5073083;28;20194;-68
2024/02/19 07:58:32;;;;;;;3.65;1.52;;;10.50;90.70;;;;;;5073083;28;20185;-68
2024/02/19 08:00:58;;;;;;;2.75;1.40;;;10.50;90.70;;;;;;5073125;28;20190;-68
2024/02/19 08:03:26;;;;;;;4.32;1.48;;;10.50;90.80;;;;;;5072610;28;20309;-68
2024/02/19 08:05:53;;;;;;;4.43;1.98;;;10.60;90.90;;;;;;5072964;28;20194;-68
2024/02/19 08:08:21;;;;;;;3.42;1.52;;;10.60;91.00;;;;;;5073274;28;20675;-68
2024/02/19 08:10:48;;;;;;;2.97;1.30;;;10.60;91.10;;;;;;5076975;28;20190;-68
2024/02/19 08:13:17;;;;;;;2.53;1.33;;;10.60;91.00;;;;;;5076881;28;20424;-68
2024/02/19 08:15:49;;;;;;;4.37;1.90;;;10.70;90.70;;;;;;5076980;28;20432;-68
2024/02/19 08:18:19;;;;;;;2.20;1.00;;;10.70;91.00;;;;;;5076530;28;20515;-68
2024/02/19 08:20:47;;;;;;;2.67;1.00;;;10.70;90.90;;;;;;5076784;28;20817;-68
2024/02/19 08:23:14;;;;;;;4.40;1.75;;;10.80;90.80;;;;;;5076277;28;20222;-69
2024/02/19 08:25:41;;;;;;;3.40;1.30;;;10.80;90.50;;;;;;5076805;28;20229;-68
2024/02/19 08:28:08;;;;;;;2.87;1.33;;;10.90;90.30;;;;;;5076276;28;20514;-68
2024/02/19 08:30:37;;;;;;;2.30;1.15;;;10.90;90.10;;;;;;5076524;28;20471;-68
2024/02/19 08:33:04;;;;;;;4.78;1.40;;;10.90;89.90;;;;;;5076529;28;20280;-68
2024/02/19 08:35:31;;;;;;;3.97;1.63;;;11.00;90.00;;;;;;5076102;28;20197;-68
2024/02/19 08:37:59;;;;;;;2.20;1.10;;;11.00;90.20;;;;;;5076135;28;20576;-68
2024/02/19 08:40:26;;;;;;;2.30;1.17;;;11.10;90.00;;;;;;5076648;28;20436;-68
2024/02/19 08:42:55;;;;;;;2.00;1.10;;;11.10;89.70;;;;;;5075659;28;20234;-68
2024/02/19 08:45:26;;;;;;;2.27;1.20;;;11.20;89.80;;;;;;5074037;28;20523;-68
2024/02/19 08:47:55;;;;;;;2.67;1.35;;;11.30;89.60;;;;;;5075906;28;20914;-68
2024/02/19 08:50:22;;;;;;;2.60;1.13;;;11.50;89.80;;;;;;5075787;28;20285;-68
2024/02/19 08:52:51;;;;;;;2.37;1.03;;;11.70;89.70;;;;;;5075879;28;20485;-68
2024/02/19 08:55:20;;;;;;;1.90;0.83;;;11.90;88.30;;;;;;5075780;28;20433;-70
2024/02/19 08:57:47;;;;;;;2.07;0.93;;;12.00;86.50;;;;;;5075791;28;20472;-68
2024/02/19 09:00:14;;;;;;;2.10;1.07;;;12.00;84.30;;;;;;5075648;28;21003;-68
2024/02/19 09:02:42;;;;;;;1.97;1.00;;;12.00;83.90;;;;;;5075945;28;20511;-67
2024/02/19 09:05:17;;;;;;;2.47;0.90;;;12.10;84.00;;;;;;5075694;28;20519;-68
2024/02/19 09:07:44;;;;;;;2.10;1.10;;;12.10;83.30;;;;;;5075802;28;20443;-68
2024/02/19 09:10:11;;;;;;;2.23;1.00;;;12.10;83.70;;;;;;5075734;28;20454;-68
2024/02/19 09:12:38;;;;;;;1.87;0.80;;;12.10;84.00;;;;;;5074980;28;20440;-68
2024/02/19 09:15:06;;;;;;;3.47;1.53;;;12.20;83.60;;;;;;5074778;28;20522;-68
2024/02/19 09:17:35;;;;;;;2.20;1.00;;;12.20;83.20;;;;;;5073957;28;20454;-68
2024/02/19 09:20:03;;;;;;;2.73;1.00;;;12.20;82.80;;;;;;5072343;28;20439;-68
2024/02/19 09:22:33;;;;;;;2.20;1.03;;;12.20;83.50;;;;;;5073478;28;20977;-68
2024/02/19 09:25:00;;;;;;;2.30;1.30;;;12.20;83.00;;;;;;5074958;28;20487;-68
2024/02/19 09:27:27;;;;;;;2.10;0.93;;;12.10;82.20;;;;;;5073612;28;20519;-68
2024/02/19 09:29:56;;;;;;;2.93;2.10;;;12.10;81.70;;;;;;5075416;28;20489;-68
2024/02/19 09:32:29;;;;;;;2.57;1.30;;;12.10;82.00;;;;;;5074954;28;20435;-68
2024/02/19 09:34:56;;;;;;;2.47;1.17;;;12.10;82.70;;;;;;5075169;28;20520;-68
2024/02/19 09:37:25;;;;;;;2.63;1.60;;;12.10;82.40;;;;;;5073868;28;20468;-68
2024/02/19 09:39:58;;;;;;;2.10;1.17;;;12.10;80.30;;;;;;5075177;28;20439;-68
2024/02/19 09:42:29;;;;;;;3.30;1.00;;;12.10;79.80;;;;;;5074792;28;20491;-68
2024/02/19 09:44:57;;;;;;;3.70;1.13;;;12.10;80.30;;;;;;5074980;28;20482;-68
2024/02/19 09:47:24;;;;;;;1.93;0.90;;;12.10;80.50;;;;;;5074793;28;20822;-68
2024/02/19 09:49:52;;;;;;;2.10;1.20;;;12.10;79.80;;;;;;5074743;28;20467;-68
2024/02/19 09:52:24;;;;;;;5.67;1.20;;;12.00;80.00;;;;;;5074687;28;20439;-68
2024/02/19 09:54:53;;;;;;;2.50;1.47;;;12.00;80.70;;;;;;5074653;28;20458;-68
2024/02/19 09:57:20;;;;;;;3.23;1.80;;;12.00;80.20;;;;;;5073937;28;20519;-68
2024/02/19 09:59:49;;;;;;;2.37;1.40;;;12.00;80.30;;;;;;5074239;28;20432;-68
2024/02/19 10:02:18;;;;;;;2.40;1.03;;;11.90;80.60;;;;;;5074339;28;20844;-68
2024/02/19 10:04:50;;;;;;;3.50;1.50;;;11.90;80.80;;;;;;5074765;28;20440;-68
2024/02/19 10:07:18;;;;;;;2.53;1.40;;;11.90;79.30;;;;;;5074496;28;20910;-68
2024/02/19 10:09:45;;;;;;;2.40;1.30;;;11.90;78.70;;;;;;5074684;28;20460;-68
2024/02/19 10:12:13;;;;;;;4.13;1.47;;;11.90;78.40;;;;;;5074245;28;20428;-68
2024/02/19 10:14:43;;;;;;;3.00;1.57;;;11.80;79.60;;;;;;5074090;28;20523;-68
2024/02/19 10:17:22;;;;;;;2.93;1.30;;;11.80;79.30;;;;;;5074201;28;20420;-68
2024/02/19 10:20:00;;;;;;;5.10;1.30;;;11.80;80.10;;;;;;5073660;28;20470;-68
2024/02/19 10:22:32;;;;;;;2.13;1.20;;;11.80;79.70;;;;;;5072764;28;20425;-68
2024/02/19 10:25:00;;;;;;;3.93;1.87;;;11.90;79.30;;;;;;5074006;28;20512;-68
2024/02/19 10:27:31;;;;;;;2.70;1.57;;;11.80;79.10;;;;;;5074042;28;20914;-68
2024/02/19 10:30:02;;;;;;;2.57;1.60;;;11.90;80.00;;;;;;5074057;28;20998;-68
2024/02/19 10:32:30;;;;;;;2.53;1.40;;;11.90;80.20;;;;;;5073444;28;20453;-68
2024/02/19 10:35:02;;;;;;;2.63;1.20;;;12.00;78.60;;;;;;5073649;28;20464;-68
2024/02/19 10:37:32;;;;;;;4.43;2.23;;;12.00;78.50;;;;;;5073889;28;20460;-68
2024/02/19 10:40:08;;;;;;;5.40;1.53;;;12.00;77.60;;;;;;5073787;28;20945;-68
2024/02/19 10:42:38;;;;;;;4.87;1.87;;;11.90;78.10;;;;;;5073822;28;20520;-68
2024/02/19 10:45:05;;;;;;;4.37;2.00;;;11.90;78.80;;;;;;5072870;28;20914;-68
2024/02/19 10:47:39;;;;;;;3.93;1.93;;;11.80;78.90;;;;;;5073619;28;20801;-68
2024/02/19 10:50:07;;;;;;;3.73;1.40;;;11.90;78.60;;;;;;5073020;28;20429;-68
2024/02/19 10:52:35;;;;;;;3.33;1.70;;;11.80;78.40;;;;;;5072968;28;20520;-68
2024/02/19 10:55:08;;;;;;;5.10;1.97;;;11.80;79.00;;;;;;5073374;28;20432;-68
2024/02/19 10:57:46;;;;;;;5.27;2.70;;;11.90;78.70;;;;;;5073111;28;20424;-68
2024/02/19 11:00:15;;;;;;;3.43;1.63;;;12.30;81.00;;;;;;5073174;28;20424;-67
2024/02/19 11:02:42;;;;;;;4.47;2.00;;;13.30;84.60;;;;;;5072914;28;20527;-67
2024/02/19 11:05:10;;;;;;;3.50;1.80;;;14.70;81.60;;;;;;5073009;28;20996;-70
2024/02/19 11:07:41;;;;;;;3.70;2.00;;;16.10;76.00;;;;;;5073618;28;20469;-68
2024/02/19 11:10:09;;;;;;;3.00;1.37;;;17.10;69.10;;;;;;5073677;28;20447;-68
2024/02/19 11:12:38;;;;;;;4.67;1.77;;;17.20;59.90;;;;;;5073537;28;20437;-68
2024/02/19 11:15:16;;;;;;;4.10;1.80;;;16.90;57.00;;;;;;5073453;28;20488;-68
2024/02/19 11:17:48;;;;;;;5.10;1.80;;;16.50;58.00;;;;;;5073755;28;20505;-68
2024/02/19 11:20:24;;;;;;;3.17;1.90;;;16.30;58.00;;;;;;5073646;28;20423;-69
2024/02/19 11:22:52;;;;;;;2.60;1.27;;;16.10;58.20;;;;;;5073068;28;20422;-68
2024/02/19 11:25:19;;;;;;;3.40;1.03;;;15.80;57.40;;;;;;5073334;28;20517;-68
2024/02/19 11:27:51;;;;;;;5.60;1.83;;;15.70;59.10;;;;;;5073153;28;20524;-68
2024/02/19 11:30:19;;;;;;;3.33;1.80;;;15.60;57.00;;;;;;5073068;28;20472;-68
2024/02/19 11:32:47;;;;;;;3.60;1.40;;;15.40;58.40;;;;;;5073385;28;20436;-68
2024/02/19 11:35:15;;;;;;;2.63;1.10;;;15.20;57.40;;;;;;5073012;28;20482;-68
2024/02/19 11:37:44;;;;;;;3.80;1.43;;;15.10;57.90;;;;;;5073253;28;20525;-68
2024/02/19 11:40:13;;;;;;;3.90;1.23;;;15.00;58.20;;;;;;5072981;28;20442;-68
2024/02/19 11:42:40;;;;;;;3.37;1.67;;;14.90;58.40;;;;;;5072188;28;20460;-69
2024/02/19 11:45:10;;;;;;;2.83;1.60;;;14.80;59.50;;;;;;5074814;28;20790;-68
2024/02/19 11:47:39;;;;;;;2.90;1.73;;;14.90;60.10;;;;;;5075196;28;20954;-68
2024/02/19 11:50:10;;;;;;;2.33;1.53;;;14.90;59.50;;;;;;5075707;28;20485;-68
2024/02/19 11:52:41;;;;;;;3.10;1.73;;;14.90;58.30;;;;;;5075776;28;20431;-68
2024/02/19 11:55:19;;;;;;;3.90;1.60;;;14.80;57.40;;;;;;5076901;28;20420;-68
2024/02/19 11:57:48;;;;;;;3.20;2.03;;;14.60;58.30;;;;;;5076944;28;20428;-68
2024/02/19 12:00:17;;;;;;;2.90;1.67;;;14.40;56.40;;;;;;5076854;28;20957;-68
2024/02/19 12:02:44;;;;;;;3.40;1.37;;;14.10;56.10;;;;;;5076513;28;20432;-69
2024/02/19 12:05:11;;;;;;;2.60;1.30;;;13.70;56.40;;;;;;5076646;28;20479;-69
2024/02/19 12:07:39;;;;;;;4.80;1.60;;;13.40;58.30;;;;;;5076982;28;20436;-69
2024/02/19 12:10:09;;;;;;;3.43;1.40;;;13.20;59.40;;;;;;5077016;28;20432;-69
2024/02/19 12:12:38;;;;;;;6.83;2.10;;;13.00;59.00;;;;;;5076558;28;20938;-69
2024/02/19 12:15:06;;;;;;;3.63;1.60;;;12.90;59.10;;;;;;5075713;28;20821;-69
2024/02/19 12:17:34;;;;;;;3.70;1.87;;;12.70;58.60;;;;;;5076509;28;20456;-68
2024/02/19 12:20:01;;;;;;;3.97;2.17;;;12.60;59.80;;;;;;5076488;28;20523;-69
2024/02/19 12:22:28;;;;;;;3.17;2.20;;;12.50;61.00;;;;;;5076840;28;20429;-68
2024/02/19 12:24:55;;;;;;;5.57;2.40;;;12.50;62.00;;;;;;5091825;28;20514;-69
2024/02/19 12:27:22;;;;;;;5.10;1.90;;;12.60;63.60;;;;;;5096696;28;20512;-70
2024/02/19 12:29:52;;;;;;;4.37;2.20;;;13.20;64.10;;;;;;5056551;28;20507;-69
2024/02/19 12:32:19;;;;;;;4.53;2.00;;;13.60;59.40;;;;;;5073297;28;20448;-69
2024/02/19 12:34:48;;;;;;;6.93;3.43;;;13.60;59.20;;;;;;5076241;28;20440;-69
2024/02/19 12:37:16;;;;;;;4.97;1.80;;;13.50;59.50;;;;;;5074580;28;20786;-69
2024/02/19 12:39:43;;;;;;;8.13;2.43;;;13.50;59.40;;;;;;5076095;28;20502;-69
2024/02/19 12:42:10;;;;;;;3.80;1.77;;;13.40;59.60;;;;;;5076358;28;20523;-68
2024/02/19 12:44:38;;;;;;;3.43;2.07;;;13.40;59.20;;;;;;5075883;28;20822;-68
2024/02/19 12:47:05;;;;;;;3.23;1.37;;;13.30;59.10;;;;;;5075880;28;20431;-70
2024/02/19 12:49:33;;;;;;;5.73;1.77;;;13.20;58.50;;;;;;5074810;28;20440;-68
2024/02/19 12:52:02;;;;;;;6.13;2.77;;;13.10;58.30;;;;;;5074786;28;20435;-69
2024/02/19 12:54:29;;;;;;;5.13;2.10;;;13.00;58.80;;;;;;5074776;28;20440;-69
2024/02/19 12:56:58;;;;;;;3.43;2.30;;;12.80;59.40;;;;;;5075625;28;20519;-69